Time;durP1;ratioP1;P1;durP2;ratioP2;P2;SDS_P1;SDS_P2;PMS_P1;PMS_P2;Temp;Humidity;BMP_temperature;BMP_pressure;BME280_temperature;BME280_humidity;BME280_pressure;Samples;Min_cycle;Max_cycle;Signal;HPM_P1;HPM_P2
2023/10/29 00:01:51;;;;;;;9.98;3.50;;;;;;;;;;5031652;28;20049;-85
2023/10/29 00:04:16;;;;;;;6.30;3.42;;;;;;;;;;5033046;28;20032;-85
2023/10/29 00:06:42;;;;;;;9.50;3.50;;;;;;;;;;5030935;28;20022;-85
2023/10/29 00:09:07;;;;;;;7.43;3.67;;;;;;;;;;5030432;28;20032;-85
2023/10/29 00:11:33;;;;;;;6.88;3.58;;;;;;;;;;5013707;28;20040;-85
2023/10/29 00:13:59;;;;;;;7.97;3.88;;;;;;;;;;5010948;28;20030;-85
2023/10/29 00:16:25;;;;;;;6.25;3.40;;;;;;;;;;5029980;28;20037;-85
2023/10/29 00:18:50;;;;;;;6.20;3.75;;;;;;;;;;5013511;28;20132;-85
2023/10/29 00:21:15;;;;;;;6.53;3.70;;;;;;;;;;5013067;28;20052;-85
2023/10/29 00:23:41;;;;;;;7.03;3.88;;;;;;;;;;5033970;28;20483;-85
2023/10/29 00:26:06;;;;;;;7.03;3.60;;;;;;;;;;5026573;28;20101;-85
2023/10/29 00:28:31;;;;;;;7.88;3.60;;;;;;;;;;5018153;28;20116;-86
2023/10/29 00:30:57;;;;;;;4.55;3.80;;;;;;;;;;5031280;28;20056;-85
2023/10/29 00:33:22;;;;;;;6.75;5.40;;;;;;;;;;5027062;28;20040;-85
2023/10/29 00:35:47;;;;;;;7.72;3.65;;;;;;;;;;5011636;28;20028;-85
2023/10/29 00:38:13;;;;;;;7.22;3.90;;;;;;;;;;5026500;28;20538;-85
2023/10/29 00:40:39;;;;;;;7.35;3.50;;;;;;;;;;5029516;28;20098;-85
2023/10/29 00:43:04;;;;;;;5.85;3.60;;;;;;;;;;5013077;28;20100;-86
2023/10/29 00:45:29;;;;;;;6.47;3.03;;;;;;;;;;5030027;28;20075;-85
2023/10/29 00:47:55;;;;;;;4.68;2.95;;;;;;;;;;5029540;28;20022;-85
2023/10/29 00:50:21;;;;;;;6.55;3.53;;;;;;;;;;5023421;28;20041;-85
2023/10/29 00:52:46;;;;;;;6.60;3.35;;;;;;;;;;5030478;28;20028;-85
2023/10/29 00:55:12;;;;;;;6.15;3.00;;;;;;;;;;5031185;28;20534;-85
2023/10/29 00:57:37;;;;;;;7.30;3.53;;;;;;;;;;5029349;28;20026;-84
2023/10/29 01:00:03;;;;;;;6.82;3.40;;;;;;;;;;5030426;28;20031;-85
2023/10/29 01:02:31;;;;;;;7.35;3.55;;;;;;;;;;5013174;28;20041;-85
2023/10/29 01:04:56;;;;;;;5.53;3.33;;;;;;;;;;5013450;28;20021;-85
2023/10/29 01:07:22;;;;;;;5.60;3.00;;;;;;;;;;5029365;28;20086;-85
2023/10/29 01:09:47;;;;;;;5.35;3.03;;;;;;;;;;5029147;28;20391;-85
2023/10/29 01:12:16;;;;;;;7.13;3.70;;;;;;;;;;5013052;28;20026;-85
2023/10/29 01:14:41;;;;;;;6.10;3.03;;;;;;;;;;5033255;28;20387;-85
2023/10/29 01:17:07;;;;;;;4.82;2.78;;;;;;;;;;5044039;28;20026;-85
2023/10/29 01:19:32;;;;;;;8.75;3.38;;;;;;;;;;5029660;28;20033;-85
2023/10/29 01:21:58;;;;;;;4.93;3.53;;;;;;;;;;5029211;28;20017;-85
2023/10/29 01:24:23;;;;;;;13.02;3.53;;;;;;;;;;5015941;28;20025;-85
2023/10/29 01:26:48;;;;;;;8.90;3.70;;;;;;;;;;5040721;28;20120;-85
2023/10/29 01:29:14;;;;;;;4.63;3.40;;;;;;;;;;5034667;28;20040;-84
2023/10/29 01:31:39;;;;;;;7.57;3.30;;;;;;;;;;5033869;28;20542;-85
2023/10/29 01:34:04;;;;;;;6.32;3.42;;;;;;;;;;5034452;28;20013;-85
2023/10/29 01:36:30;;;;;;;7.70;3.63;;;;;;;;;;5016799;28;20032;-85
2023/10/29 01:38:55;;;;;;;6.78;3.30;;;;;;;;;;5015924;28;20119;-85
2023/10/29 01:41:20;;;;;;;5.75;3.38;;;;;;;;;;5032568;28;20392;-85
2023/10/29 01:43:46;;;;;;;6.93;3.55;;;;;;;;;;5033010;28;20112;-84
2023/10/29 01:46:11;;;;;;;6.10;3.28;;;;;;;;;;5032937;28;20115;-85
2023/10/29 01:48:36;;;;;;;7.10;3.55;;;;;;;;;;5028910;28;20372;-85
2023/10/29 01:51:05;;;;;;;8.18;3.15;;;;;;;;;;5034025;28;20045;-85
2023/10/29 01:53:31;;;;;;;9.20;3.80;;;;;;;;;;5032686;28;20048;-85
2023/10/29 01:55:56;;;;;;;7.50;3.58;;;;;;;;;;5015908;28;20021;-84
2023/10/29 01:58:21;;;;;;;8.77;3.55;;;;;;;;;;5022707;28;20364;-85
2023/10/29 02:00:47;;;;;;;8.07;3.50;;;;;;;;;;5033065;28;20014;-85
2023/10/29 02:03:12;;;;;;;4.80;3.17;;;;;;;;;;5021841;28;20025;-85
2023/10/29 02:05:38;;;;;;;7.47;3.33;;;;;;;;;;5035603;28;20017;-85
2023/10/29 02:08:04;;;;;;;5.40;3.45;;;;;;;;;;5016489;28;20481;-85
2023/10/29 02:10:30;;;;;;;5.35;3.55;;;;;;;;;;5016167;28;20041;-85
2023/10/29 02:12:55;;;;;;;8.90;3.60;;;;;;;;;;5015732;28;20091;-85
2023/10/29 02:15:20;;;;;;;6.65;3.10;;;;;;;;;;5033665;28;20017;-85
2023/10/29 02:17:46;;;;;;;7.78;3.45;;;;;;;;;;5016410;28;20438;-85
2023/10/29 02:20:12;;;;;;;8.73;3.40;;;;;;;;;;5033611;28;20030;-85
2023/10/29 02:22:37;;;;;;;6.70;3.10;;;;;;;;;;5032545;28;20029;-85
2023/10/29 02:25:02;;;;;;;6.82;3.38;;;;;;;;;;5032724;28;20034;-85
2023/10/29 02:27:28;;;;;;;6.15;3.40;;;;;;;;;;5033412;28;20097;-85
2023/10/29 02:29:54;;;;;;;7.03;3.63;;;;;;;;;;5034169;28;20122;-85
2023/10/29 02:32:19;;;;;;;8.48;4.40;;;;;;;;;;5033226;28;20021;-85
2023/10/29 02:34:44;;;;;;;7.65;3.70;;;;;;;;;;5015099;28;20068;-85
2023/10/29 02:37:10;;;;;;;4.80;3.00;;;;;;;;;;5032114;28;20022;-84
2023/10/29 02:39:35;;;;;;;8.80;3.75;;;;;;;;;;5035875;28;20071;-85
2023/10/29 02:42:01;;;;;;;12.73;7.25;;;;;;;;;;5033323;28;20041;-85
2023/10/29 02:44:26;;;;;;;12.30;6.53;;;;;;;;;;5015746;28;20028;-84
2023/10/29 02:46:51;;;;;;;6.93;4.30;;;;;;;;;;5033892;28;20408;-85
2023/10/29 02:49:16;;;;;;;7.28;3.67;;;;;;;;;;5032994;28;20097;-85
2023/10/29 02:51:42;;;;;;;7.10;3.53;;;;;;;;;;5015468;28;20021;-85
2023/10/29 02:54:07;;;;;;;8.05;3.50;;;;;;;;;;5031942;28;20025;-85
2023/10/29 02:56:32;;;;;;;4.32;2.70;;;;;;;;;;5024451;28;20029;-84
2023/10/29 02:59:00;;;;;;;7.03;3.30;;;;;;;;;;5032695;28;20501;-85
2023/10/29 03:01:25;;;;;;;5.60;3.67;;;;;;;;;;5015937;28;20053;-85
2023/10/29 03:03:51;;;;;;;11.02;4.05;;;;;;;;;;5015803;28;20032;-85
2023/10/29 03:06:16;;;;;;;5.95;3.70;;;;;;;;;;5019688;28;20021;-85
2023/10/29 03:08:41;;;;;;;14.15;4.50;;;;;;;;;;5033078;28;20045;-85
2023/10/29 03:11:07;;;;;;;13.50;7.68;;;;;;;;;;5031242;28;20043;-85
2023/10/29 03:13:32;;;;;;;9.38;5.32;;;;;;;;;;5033205;28;20021;-84
2023/10/29 03:15:58;;;;;;;6.18;3.67;;;;;;;;;;5014947;28;20221;-84
2023/10/29 03:18:23;;;;;;;6.97;3.50;;;;;;;;;;5033020;28;20025;-83
2023/10/29 03:20:49;;;;;;;6.65;3.58;;;;;;;;;;5033229;28;20026;-86
2023/10/29 03:23:14;;;;;;;6.28;3.90;;;;;;;;;;5026870;28;20021;-85
2023/10/29 03:25:39;;;;;;;6.82;3.33;;;;;;;;;;5031327;28;20025;-85
2023/10/29 03:28:05;;;;;;;6.85;3.70;;;;;;;;;;5031376;28;20022;-85
2023/10/29 03:30:30;;;;;;;7.07;3.20;;;;;;;;;;5031319;28;20029;-85
2023/10/29 03:32:55;;;;;;;7.25;4.50;;;;;;;;;;5020604;28;20079;-86
2023/10/29 03:35:21;;;;;;;7.70;4.10;;;;;;;;;;5031896;28;20387;-85
2023/10/29 03:37:46;;;;;;;5.47;3.20;;;;;;;;;;5032054;28;20021;-85
2023/10/29 03:40:11;;;;;;;9.48;3.88;;;;;;;;;;5032344;28;20476;-84
2023/10/29 03:42:36;;;;;;;9.82;3.60;;;;;;;;;;5032415;28;20014;-84
2023/10/29 03:45:03;;;;;;;6.45;3.20;;;;;;;;;;5014822;28;20051;-83
2023/10/29 03:47:28;;;;;;;7.15;3.30;;;;;;;;;;5032339;28;20041;-83
2023/10/29 03:49:55;;;;;;;6.45;3.63;;;;;;;;;;5014566;28;20156;-83
2023/10/29 03:52:22;;;;;;;18.70;10.20;;;;;;;;;;5031857;28;20036;-84
2023/10/29 03:54:47;;;;;;;18.88;10.13;;;;;;;;;;5030811;28;20041;-86
2023/10/29 03:57:13;;;;;;;17.77;7.10;;;;;;;;;;5015002;28;20026;-85
2023/10/29 03:59:38;;;;;;;10.52;5.38;;;;;;;;;;5014437;28;20026;-85
2023/10/29 04:02:03;;;;;;;10.77;5.13;;;;;;;;;;5032101;28;20524;-85
2023/10/29 04:04:29;;;;;;;9.65;4.80;;;;;;;;;;5032217;28;20031;-85
2023/10/29 04:06:55;;;;;;;10.05;4.40;;;;;;;;;;5014885;28;20407;-85
2023/10/29 04:09:20;;;;;;;9.88;4.55;;;;;;;;;;5016152;28;20472;-85
2023/10/29 04:11:45;;;;;;;12.25;5.88;;;;;;;;;;5032466;28;20021;-86
2023/10/29 04:14:10;;;;;;;11.07;4.78;;;;;;;;;;5031060;28;20485;-86
2023/10/29 04:16:36;;;;;;;9.25;4.55;;;;;;;;;;5016311;28;20554;-84
2023/10/29 04:19:01;;;;;;;12.98;4.18;;;;;;;;;;5033374;28;20032;-84
2023/10/29 04:21:26;;;;;;;7.82;4.53;;;;;;;;;;5033041;28;20118;-84
2023/10/29 04:23:52;;;;;;;9.00;4.32;;;;;;;;;;5033750;28;20099;-84
2023/10/29 04:26:18;;;;;;;10.40;5.90;;;;;;;;;;5031823;28;20025;-84
2023/10/29 04:28:43;;;;;;;8.23;4.30;;;;;;;;;;5015697;28;20555;-84
2023/10/29 04:31:08;;;;;;;13.13;6.75;;;;;;;;;;5033071;28;20040;-84
2023/10/29 04:33:34;;;;;;;10.27;5.20;;;;;;;;;;5034729;28;20021;-85
2023/10/29 04:35:59;;;;;;;9.90;5.35;;;;;;;;;;5019380;28;20022;-84
2023/10/29 04:38:24;;;;;;;9.27;4.90;;;;;;;;;;5031909;28;20025;-84
2023/10/29 04:40:51;;;;;;;8.38;4.63;;;;;;;;;;5032294;28;20025;-84
2023/10/29 04:43:16;;;;;;;9.48;4.72;;;;;;;;;;5015062;28;20043;-84
2023/10/29 04:45:41;;;;;;;9.55;4.43;;;;;;;;;;5014724;28;20036;-85
2023/10/29 04:48:07;;;;;;;8.77;4.30;;;;;;;;;;5014998;28;20021;-85
2023/10/29 04:50:32;;;;;;;8.30;4.00;;;;;;;;;;5036498;28;20025;-84
2023/10/29 04:52:58;;;;;;;7.43;3.95;;;;;;;;;;5019204;28;20021;-84
2023/10/29 04:55:24;;;;;;;6.88;4.22;;;;;;;;;;5037418;28;20045;-84
2023/10/29 04:57:49;;;;;;;7.88;4.47;;;;;;;;;;5036714;28;20134;-84
2023/10/29 05:00:14;;;;;;;8.90;4.47;;;;;;;;;;5031532;28;20036;-84
2023/10/29 05:02:40;;;;;;;10.27;4.57;;;;;;;;;;5026552;28;20120;-85
2023/10/29 05:05:06;;;;;;;9.43;4.45;;;;;;;;;;5038342;28;20033;-84
2023/10/29 05:07:32;;;;;;;13.27;5.72;;;;;;;;;;5041127;28;20077;-84
2023/10/29 05:09:57;;;;;;;12.13;4.82;;;;;;;;;;5030467;28;20052;-83
2023/10/29 05:12:23;;;;;;;12.65;4.75;;;;;;;;;;5038842;28;20025;-84
2023/10/29 05:14:51;;;;;;;9.82;4.75;;;;;;;;;;5033332;28;20072;-84
2023/10/29 05:17:16;;;;;;;10.18;4.55;;;;;;;;;;5016801;28;20754;-85
2023/10/29 05:19:41;;;;;;;9.48;4.88;;;;;;;;;;5033879;28;20026;-84
2023/10/29 05:22:07;;;;;;;8.48;4.47;;;;;;;;;;5015740;28;20079;-84
2023/10/29 05:24:32;;;;;;;8.68;4.35;;;;;;;;;;5033972;28;20017;-86
2023/10/29 05:26:58;;;;;;;13.88;4.97;;;;;;;;;;5016671;28;20391;-86
2023/10/29 05:29:23;;;;;;;9.57;4.47;;;;;;;;;;5016364;28;20029;-86
2023/10/29 05:31:48;;;;;;;9.88;4.82;;;;;;;;;;5034187;28;20025;-86
2023/10/29 05:34:14;;;;;;;11.75;4.90;;;;;;;;;;5017391;28;20095;-86
2023/10/29 05:36:39;;;;;;;12.68;4.75;;;;;;;;;;5033443;28;20101;-86
2023/10/29 05:39:06;;;;;;;9.95;5.05;;;;;;;;;;5033162;28;20091;-86
2023/10/29 05:41:32;;;;;;;9.52;5.13;;;;;;;;;;5034425;28;20025;-86
2023/10/29 05:43:57;;;;;;;9.30;4.50;;;;;;;;;;5033450;28;20786;-87
2023/10/29 05:46:22;;;;;;;7.35;4.65;;;;;;;;;;5013279;28;20064;-86
2023/10/29 05:48:48;;;;;;;9.25;4.57;;;;;;;;;;5039001;28;20029;-86
2023/10/29 05:51:23;;;;;;;6.95;4.63;;;;;;;;;;5046332;28;20018;-85
2023/10/29 05:53:49;;;;;;;10.50;4.30;;;;;;;;;;5029492;28;20036;-83
2023/10/29 05:56:14;;;;;;;9.20;4.65;;;;;;;;;;5029858;28;20053;-85
2023/10/29 05:58:40;;;;;;;9.18;4.60;;;;;;;;;;5031457;28;20021;-85
2023/10/29 06:01:05;;;;;;;11.38;4.72;;;;;;;;;;5045768;28;20010;-86
2023/10/29 06:03:31;;;;;;;11.73;5.28;;;;;;;;;;5041810;28;20025;-86
2023/10/29 06:05:56;;;;;;;9.65;5.15;;;;;;;;;;5036750;28;20441;-86
2023/10/29 06:08:22;;;;;;;9.60;5.20;;;;;;;;;;5024960;28;20053;-86
2023/10/29 06:10:47;;;;;;;9.18;5.47;;;;;;;;;;5020702;28;20256;-85
2023/10/29 06:13:13;;;;;;;10.32;6.32;;;;;;;;;;5022519;28;21153;-88
2023/10/29 06:15:39;;;;;;;10.90;6.45;;;;;;;;;;5020563;28;20140;-91
2023/10/29 06:18:06;;;;;;;73.78;54.25;;;;;;;;;;5032436;28;20030;-84
2023/10/29 06:20:31;;;;;;;141.70;67.13;;;;;;;;;;5009655;28;20033;-84
2023/10/29 06:22:57;;;;;;;48.55;24.73;;;;;;;;;;5024469;28;20029;-84
2023/10/29 06:25:22;;;;;;;31.33;17.70;;;;;;;;;;5002430;28;20121;-84
2023/10/29 06:27:47;;;;;;;68.50;35.90;;;;;;;;;;5016405;28;20026;-84
2023/10/29 06:30:13;;;;;;;55.58;25.13;;;;;;;;;;4993425;28;20058;-84
2023/10/29 06:32:38;;;;;;;21.50;12.48;;;;;;;;;;5024358;28;20010;-84
2023/10/29 06:35:04;;;;;;;28.10;15.25;;;;;;;;;;5009348;28;20757;-86
2023/10/29 06:37:29;;;;;;;12.90;6.10;;;;;;;;;;5006163;28;20018;-86
2023/10/29 06:39:55;;;;;;;13.48;6.25;;;;;;;;;;5009117;28;20105;-86
2023/10/29 06:42:20;;;;;;;12.95;6.60;;;;;;;;;;4999444;28;20099;-86
2023/10/29 06:44:45;;;;;;;14.80;7.28;;;;;;;;;;5006919;28;20145;-86
2023/10/29 06:47:11;;;;;;;13.15;7.32;;;;;;;;;;5007080;28;20052;-86
2023/10/29 06:49:37;;;;;;;12.43;6.28;;;;;;;;;;5007572;28;20483;-87
2023/10/29 06:52:04;;;;;;;12.45;6.40;;;;;;;;;;5007830;28;20476;-86
2023/10/29 06:54:30;;;;;;;11.25;4.78;;;;;;;;;;5023941;28;20022;-87
2023/10/29 06:56:56;;;;;;;7.38;3.17;;;;;;;;;;5008364;28;20022;-87
2023/10/29 06:59:21;;;;;;;9.43;3.65;;;;;;;;;;5023892;28;20506;-85
2023/10/29 07:01:52;;;;;;;9.20;3.78;;;;;;;;;;5026969;28;20040;-87
2023/10/29 07:04:17;;;;;;;7.63;3.28;;;;;;;;;;5010788;28;20499;-88
2023/10/29 07:06:44;;;;;;;8.43;3.72;;;;;;;;;;5029096;28;20076;-85
2023/10/29 07:09:09;;;;;;;8.32;4.28;;;;;;;;;;4992880;28;20457;-86
2023/10/29 07:11:34;;;;;;;10.02;4.28;;;;;;;;;;5020332;28;20026;-86
2023/10/29 07:14:01;;;;;;;11.60;4.05;;;;;;;;;;5004344;28;20030;-85
2023/10/29 07:16:26;;;;;;;14.70;7.22;;;;;;;;;;5004609;28;20053;-87
2023/10/29 07:18:52;;;;;;;11.70;6.30;;;;;;;;;;5004537;28;20053;-86
2023/10/29 07:21:17;;;;;;;10.13;6.43;;;;;;;;;;5022136;28;20109;-87
2023/10/29 07:23:42;;;;;;;11.00;6.07;;;;;;;;;;5008566;28;20198;-87
2023/10/29 07:26:08;;;;;;;12.57;7.03;;;;;;;;;;5008283;28;20399;-87
2023/10/29 07:28:34;;;;;;;11.52;6.05;;;;;;;;;;5008657;28;20029;-86
2023/10/29 07:31:01;;;;;;;8.60;4.22;;;;;;;;;;5008643;28;20498;-86
2023/10/29 07:33:26;;;;;;;11.48;5.25;;;;;;;;;;5024006;28;20133;-87
2023/10/29 07:35:52;;;;;;;9.63;5.13;;;;;;;;;;5024796;28;20416;-83
2023/10/29 07:38:30;;;;;;;9.07;5.30;;;;;;;;;;5029263;28;20072;-93
2023/10/29 07:40:58;;;;;;;9.45;6.03;;;;;;;;;;5034893;28;20026;-91
2023/10/29 07:43:25;;;;;;;10.57;5.75;;;;;;;;;;5022991;28;20109;-88
2023/10/29 07:46:04;;;;;;;11.23;6.38;;;;;;;;;;5025334;28;20543;-94
2023/10/29 07:48:29;;;;;;;16.70;9.30;;;;;;;;;;5010626;28;20037;-88
2023/10/29 07:50:55;;;;;;;16.23;7.07;;;;;;;;;;5010653;28;20475;-90
2023/10/29 07:53:21;;;;;;;11.50;6.38;;;;;;;;;;5024797;28;20555;-89
2023/10/29 07:55:46;;;;;;;9.02;5.10;;;;;;;;;;5008722;28;20471;-88
2023/10/29 07:58:11;;;;;;;10.05;4.18;;;;;;;;;;5008415;28;20144;-89
2023/10/29 08:00:39;;;;;;;9.32;3.63;;;;;;;;;;5023769;28;20022;-88
2023/10/29 08:03:10;;;;;;;7.05;3.63;;;;;;;;;;5012427;28;20021;-89
2023/10/29 08:05:53;;;;;;;6.80;3.45;;;;;;;;;;5022426;28;20026;-84
2023/10/29 08:08:19;;;;;;;8.00;3.83;;;;;;;;;;5018391;28;20085;-90
2023/10/29 08:28:49;;;;;;;6.30;2.88;;;;;;;;;;5028286;28;20083;-84
2023/10/29 08:31:15;;;;;;;8.68;3.38;;;;;;;;;;5019923;28;20014;-87
2023/10/29 08:33:40;;;;;;;7.95;3.38;;;;;;;;;;5031903;28;20026;-85
2023/10/29 08:36:06;;;;;;;6.93;3.15;;;;;;;;;;5016429;28;20026;-85
2023/10/29 08:38:31;;;;;;;40.50;26.83;;;;;;;;;;5025757;28;20108;-85
2023/10/29 08:40:56;;;;;;;46.53;34.33;;;;;;;;;;5033224;28;20036;-86
2023/10/29 08:43:22;;;;;;;3.72;1.83;;;;;;;;;;5029388;28;20018;-86
2023/10/29 08:45:47;;;;;;;6.85;3.17;;;;;;;;;;5027691;28;20743;-87
2023/10/29 08:48:12;;;;;;;7.95;3.13;;;;;;;;;;5024275;28;20045;-86
2023/10/29 08:50:38;;;;;;;6.35;2.30;;;;;;;;;;5007790;28;20022;-85
2023/10/29 08:53:04;;;;;;;4.47;2.10;;;;;;;;;;5014319;28;20412;-85
2023/10/29 08:55:30;;;;;;;6.78;2.67;;;;;;;;;;5028231;28;20387;-84
2023/10/29 08:57:56;;;;;;;15.93;7.65;;;;;;;;;;5023896;28;20022;-85
2023/10/29 09:00:22;;;;;;;25.63;14.65;;;;;;;;;;5011333;28;20032;-83
2023/10/29 09:02:47;;;;;;;6.10;2.33;;;;;;;;;;5026216;28;20025;-83
2023/10/29 09:05:12;;;;;;;13.57;6.88;;;;;;;;;;5028392;28;20029;-84
2023/10/29 09:07:38;;;;;;;7.72;3.40;;;;;;;;;;5028443;28;20022;-84
2023/10/29 09:10:03;;;;;;;6.95;2.67;;;;;;;;;;5027042;28;20025;-85
2023/10/29 09:12:29;;;;;;;5.30;2.25;;;;;;;;;;5012551;28;20026;-85
2023/10/29 09:14:54;;;;;;;5.65;2.13;;;;;;;;;;5028731;28;20487;-87
2023/10/29 09:17:20;;;;;;;6.70;2.28;;;;;;;;;;5029516;28;20479;-90
2023/10/29 09:19:45;;;;;;;4.50;2.40;;;;;;;;;;5031054;28;20021;-85
2023/10/29 09:22:10;;;;;;;6.75;2.53;;;;;;;;;;5032818;28;20092;-90
2023/10/29 09:24:36;;;;;;;5.50;2.17;;;;;;;;;;5005562;28;20062;-85
2023/10/29 09:27:04;;;;;;;8.00;2.00;;;;;;;;;;5011466;28;20046;-90
2023/10/29 09:29:31;;;;;;;6.68;2.05;;;;;;;;;;5006220;28;20076;-84
2023/10/29 09:31:57;;;;;;;11.15;2.42;;;;;;;;;;5008942;28;20029;-87
2023/10/29 09:34:22;;;;;;;7.18;2.55;;;;;;;;;;5009389;28;20443;-87
2023/10/29 09:36:47;;;;;;;11.70;4.00;;;;;;;;;;5010552;28;20014;-85
2023/10/29 09:39:13;;;;;;;63.17;19.17;;;;;;;;;;5009840;28;20395;-86
2023/10/29 09:41:42;;;;;;;6.60;2.70;;;;;;;;;;5010883;28;20239;-91
2023/10/29 09:44:11;;;;;;;11.07;3.75;;;;;;;;;;4994056;28;20030;-87
2023/10/29 09:46:37;;;;;;;4.13;1.70;;;;;;;;;;4994092;28;20125;-86
2023/10/29 09:49:03;;;;;;;5.40;2.67;;;;;;;;;;4991762;28;20034;-87
2023/10/29 09:51:29;;;;;;;4.75;1.90;;;;;;;;;;4993198;28;20030;-87
2023/10/29 09:53:57;;;;;;;9.80;1.88;;;;;;;;;;4981796;28;20170;-86
2023/10/29 09:56:23;;;;;;;4.22;2.10;;;;;;;;;;5014143;28;20033;-86
2023/10/29 09:58:49;;;;;;;4.55;1.88;;;;;;;;;;5035610;28;20029;-87
2023/10/29 10:01:15;;;;;;;4.80;1.90;;;;;;;;;;5043401;28;20017;-87
2023/10/29 10:03:40;;;;;;;7.32;3.40;;;;;;;;;;5033779;28;20052;-86
2023/10/29 10:06:06;;;;;;;6.07;2.30;;;;;;;;;;5009032;28;20033;-85
2023/10/29 10:08:33;;;;;;;5.97;2.40;;;;;;;;;;5032362;28;20606;-86
2023/10/29 10:10:59;;;;;;;3.42;1.42;;;;;;;;;;5030650;28;20028;-87
2023/10/29 10:13:37;;;;;;;5.88;2.13;;;;;;;;;;5033462;28;20052;-86
2023/10/29 10:16:06;;;;;;;5.10;1.65;;;;;;;;;;5032463;28;20490;-86
2023/10/29 10:18:46;;;;;;;6.30;2.67;;;;;;;;;;5010885;28;20034;-88
2023/10/29 10:21:12;;;;;;;4.18;1.85;;;;;;;;;;5012019;28;20022;-88
2023/10/29 10:23:51;;;;;;;4.10;1.80;;;;;;;;;;5012949;28;20164;-88
2023/10/29 10:26:21;;;;;;;7.40;4.38;;;;;;;;;;5031688;28;20025;-88
2023/10/29 10:28:57;;;;;;;7.72;3.25;;;;;;;;;;5031520;28;20050;-88
2023/10/29 10:31:22;;;;;;;3.63;2.22;;;;;;;;;;5013492;28;20021;-89
2023/10/29 10:33:49;;;;;;;4.05;2.20;;;;;;;;;;4997483;28;20022;-88
2023/10/29 10:36:14;;;;;;;6.40;4.20;;;;;;;;;;5011437;28;20014;-88
2023/10/29 10:38:52;;;;;;;4.53;1.80;;;;;;;;;;5006021;28;20605;-88
2023/10/29 10:41:17;;;;;;;3.33;1.92;;;;;;;;;;5031353;28;20548;-87
2023/10/29 10:43:43;;;;;;;3.25;1.50;;;;;;;;;;5037490;28;20033;-88
2023/10/29 10:46:11;;;;;;;6.70;3.95;;;;;;;;;;5037035;28;20100;-87
2023/10/29 10:48:37;;;;;;;4.97;2.90;;;;;;;;;;5029340;28;20486;-88
2023/10/29 10:51:04;;;;;;;2.60;1.40;;;;;;;;;;5030470;28;20105;-88
2023/10/29 10:53:30;;;;;;;3.13;1.33;;;;;;;;;;5025758;28;20021;-87
2023/10/29 10:55:56;;;;;;;2.35;0.98;;;;;;;;;;5009592;28;20018;-89
2023/10/29 10:58:22;;;;;;;3.53;1.25;;;;;;;;;;4994581;28;20670;-88
2023/10/29 11:00:49;;;;;;;2.63;1.30;;;;;;;;;;5030515;28;20018;-87
2023/10/29 11:03:15;;;;;;;3.78;2.38;;;;;;;;;;5030126;28;20479;-87
2023/10/29 11:05:41;;;;;;;6.28;3.53;;;;;;;;;;5010860;28;20100;-87
2023/10/29 11:08:07;;;;;;;4.93;2.85;;;;;;;;;;4993194;28;20478;-87
2023/10/29 11:10:33;;;;;;;4.10;1.52;;;;;;;;;;5027574;28;20515;-88
2023/10/29 11:13:16;;;;;;;4.03;1.60;;;;;;;;;;5028860;28;20104;-88
2023/10/29 11:15:46;;;;;;;2.35;1.70;;;;;;;;;;5031214;28;20045;-86
2023/10/29 11:18:12;;;;;;;6.53;1.42;;;;;;;;;;5028198;28;20100;-87
2023/10/29 11:20:46;;;;;;;3.55;1.70;;;;;;;;;;4998433;28;20547;-87
2023/10/29 11:23:15;;;;;;;5.97;1.48;;;;;;;;;;4992561;28;20156;-88
2023/10/29 11:25:41;;;;;;;3.63;1.60;;;;;;;;;;4992468;28;20030;-87
2023/10/29 11:28:26;;;;;;;2.80;1.77;;;;;;;;;;5009022;28;20095;-87
2023/10/29 11:31:21;;;;;;;2.85;1.20;;;;;;;;;;5020905;28;20082;-87
2023/10/29 11:33:48;;;;;;;3.03;1.20;;;;;;;;;;4973325;28;20030;-87
2023/10/29 11:36:29;;;;;;;4.85;2.03;;;;;;;;;;4975465;28;20030;-84
2023/10/29 11:38:58;;;;;;;3.25;1.35;;;;;;;;;;4972952;28;20049;-87
2023/10/29 11:41:34;;;;;;;4.20;1.67;;;;;;;;;;4971610;28;20026;-87
2023/10/29 11:44:21;;;;;;;4.25;1.98;;;;;;;;;;4971369;28;20023;-87
2023/10/29 11:46:58;;;;;;;5.35;3.28;;;;;;;;;;4970258;28;20543;-88
2023/10/29 11:49:24;;;;;;;4.75;2.30;;;;;;;;;;4983007;28;20033;-88
2023/10/29 11:51:56;;;;;;;1.80;1.58;;;;;;;;;;4976273;28;20030;-87
2023/10/29 11:54:24;;;;;;;4.95;1.90;;;;;;;;;;4951086;29;20023;-88
2023/10/29 11:56:50;;;;;;;3.40;1.40;;;;;;;;;;4960233;28;20031;-86
2023/10/29 11:59:15;;;;;;;4.95;1.30;;;;;;;;;;4951470;28;20031;-87
2023/10/29 12:01:49;;;;;;;2.97;1.50;;;;;;;;;;4970756;28;20023;-95
2023/10/29 12:04:15;;;;;;;3.20;1.60;;;;;;;;;;4935874;29;20138;-86
2023/10/29 12:06:40;;;;;;;1.33;0.98;;;;;;;;;;4941318;28;20098;-84
2023/10/29 12:09:15;;;;;;;2.45;1.02;;;;;;;;;;4970360;28;20030;-88
2023/10/29 12:11:41;;;;;;;2.10;1.23;;;;;;;;;;4993961;28;20105;-87
2023/10/29 12:14:06;;;;;;;3.78;1.40;;;;;;;;;;5023632;28;20041;-86
2023/10/29 12:16:32;;;;;;;2.15;1.27;;;;;;;;;;5012898;28;20022;-86
2023/10/29 12:18:57;;;;;;;3.08;1.23;;;;;;;;;;5014091;28;20424;-87
2023/10/29 12:21:23;;;;;;;4.07;1.45;;;;;;;;;;4998216;28;20028;-82
2023/10/29 12:23:49;;;;;;;3.42;1.60;;;;;;;;;;5028471;28;20025;-87
2023/10/29 12:26:15;;;;;;;5.25;3.83;;;;;;;;;;5015888;28;20025;-92
2023/10/29 12:28:40;;;;;;;4.07;1.60;;;;;;;;;;5012355;28;20053;-86
2023/10/29 12:31:10;;;;;;;4.00;1.50;;;;;;;;;;5029089;28;20009;-88
2023/10/29 12:33:35;;;;;;;2.20;1.00;;;;;;;;;;5027545;28;20063;-86
2023/10/29 12:36:04;;;;;;;3.05;1.20;;;;;;;;;;5029205;28;20053;-87
2023/10/29 12:38:29;;;;;;;2.78;1.10;;;;;;;;;;5027890;28;20021;-87
2023/10/29 12:41:01;;;;;;;2.75;1.10;;;;;;;;;;5029426;28;20022;-87
2023/10/29 12:43:36;;;;;;;1.80;1.30;;;;;;;;;;5022555;28;20080;-88
2023/10/29 12:46:02;;;;;;;2.88;1.13;;;;;;;;;;5023208;28;20033;-87
2023/10/29 12:48:27;;;;;;;3.63;1.45;;;;;;;;;;5022751;28;20048;-88
2023/10/29 12:50:54;;;;;;;2.47;1.33;;;;;;;;;;5000103;28;20072;-88
2023/10/29 12:53:27;;;;;;;2.88;1.33;;;;;;;;;;5028488;28;20124;-87
2023/10/29 12:55:53;;;;;;;5.18;2.92;;;;;;;;;;5029810;28;20021;-88
2023/10/29 12:58:18;;;;;;;2.58;1.50;;;;;;;;;;5032819;28;20396;-89
2023/10/29 13:00:44;;;;;;;33.33;30.25;;;;;;;;;;5012342;28;20029;-86
2023/10/29 13:03:10;;;;;;;5.45;4.25;;;;;;;;;;5011956;28;20049;-87
2023/10/29 13:05:36;;;;;;;3.55;1.40;;;;;;;;;;5029433;28;20026;-86
2023/10/29 13:08:01;;;;;;;3.13;1.30;;;;;;;;;;5032990;28;20018;-88
2023/10/29 13:10:26;;;;;;;3.47;1.20;;;;;;;;;;5031533;28;20033;-88
2023/10/29 13:12:52;;;;;;;2.00;1.20;;;;;;;;;;5032723;28;20238;-85
2023/10/29 13:15:18;;;;;;;3.50;1.20;;;;;;;;;;5017168;28;20431;-87
2023/10/29 13:17:49;;;;;;;4.15;1.40;;;;;;;;;;5033975;28;20022;-88
2023/10/29 13:20:15;;;;;;;4.10;1.30;;;;;;;;;;5015823;28;20089;-87
2023/10/29 13:22:42;;;;;;;6.63;4.07;;;;;;;;;;5021715;28;20424;-86
2023/10/29 13:25:07;;;;;;;5.35;2.22;;;;;;;;;;5035247;28;20018;-86
2023/10/29 13:27:33;;;;;;;4.38;1.98;;;;;;;;;;5012608;28;20451;-87
2023/10/29 13:29:59;;;;;;;7.00;3.08;;;;;;;;;;5027283;28;20014;-92
2023/10/29 13:32:25;;;;;;;4.25;1.58;;;;;;;;;;5034714;28;20109;-86
2023/10/29 13:34:55;;;;;;;3.00;1.27;;;;;;;;;;5031478;28;20112;-85
2023/10/29 13:37:21;;;;;;;5.18;1.80;;;;;;;;;;5033047;28;20021;-88
2023/10/29 13:39:46;;;;;;;4.63;1.88;;;;;;;;;;5031816;28;20059;-87
2023/10/29 13:42:11;;;;;;;3.60;1.85;;;;;;;;;;5012990;28;20547;-87
2023/10/29 13:44:37;;;;;;;4.13;2.00;;;;;;;;;;5013982;28;20029;-86
2023/10/29 13:47:06;;;;;;;5.82;3.50;;;;;;;;;;5030302;28;20780;-87
2023/10/29 13:49:31;;;;;;;3.80;2.22;;;;;;;;;;5014679;28;20093;-87
2023/10/29 13:51:56;;;;;;;4.43;2.92;;;;;;;;;;5020416;28;20053;-87
2023/10/29 13:54:22;;;;;;;4.97;2.63;;;;;;;;;;4995983;28;20368;-87
2023/10/29 13:56:47;;;;;;;5.53;2.13;;;;;;;;;;5018811;28;20673;-87
2023/10/29 13:59:15;;;;;;;3.90;2.60;;;;;;;;;;5020307;28;20022;-87
2023/10/29 14:01:41;;;;;;;;;;;;;;;;;;5017832;28;20045;-87
2023/10/29 14:04:09;;;;;;;2.83;1.63;;;;;;;;;;5014134;28;20020;-93
2023/10/29 14:06:36;;;;;;;2.95;1.13;;;;;;;;;;5016418;28;20029;-86
2023/10/29 14:09:02;;;;;;;4.45;1.80;;;;;;;;;;5015146;28;20056;-87
2023/10/29 14:11:27;;;;;;;3.35;1.38;;;;;;;;;;5011477;28;20563;-87
2023/10/29 14:13:56;;;;;;;5.00;1.40;;;;;;;;;;5016020;28;20477;-86
2023/10/29 14:16:35;;;;;;;5.40;2.40;;;;;;;;;;5014156;28;20036;-86
2023/10/29 14:19:00;;;;;;;3.80;2.20;;;;;;;;;;5015983;28;20038;-88
2023/10/29 14:21:26;;;;;;;2.95;2.28;;;;;;;;;;5013682;28;20030;-87
2023/10/29 14:23:51;;;;;;;3.28;1.90;;;;;;;;;;5015648;28;20038;-87
2023/10/29 14:26:18;;;;;;;3.33;2.10;;;;;;;;;;5033725;28;20380;-87
2023/10/29 14:28:45;;;;;;;4.32;2.00;;;;;;;;;;5010205;28;20552;-87
2023/10/29 14:31:10;;;;;;;3.30;2.08;;;;;;;;;;4998509;28;20105;-87
2023/10/29 14:33:35;;;;;;;5.47;1.92;;;;;;;;;;4998133;28;20130;-87
2023/10/29 14:36:01;;;;;;;6.72;3.47;;;;;;;;;;5017786;28;20080;-87
2023/10/29 14:38:28;;;;;;;5.63;3.85;;;;;;;;;;5023458;28;20014;-88
2023/10/29 14:40:55;;;;;;;8.27;3.78;;;;;;;;;;5023927;28;20041;-87
2023/10/29 14:43:22;;;;;;;7.68;3.80;;;;;;;;;;5021563;28;20024;-87
2023/10/29 14:45:48;;;;;;;17.02;4.25;;;;;;;;;;5001596;28;20451;-87
2023/10/29 14:48:13;;;;;;;13.48;3.33;;;;;;;;;;5015592;28;20100;-87
2023/10/29 14:50:39;;;;;;;33.78;3.95;;;;;;;;;;5009714;28;20065;-86
2023/10/29 14:53:04;;;;;;;12.77;2.30;;;;;;;;;;5011870;28;20623;-86
2023/10/29 14:55:29;;;;;;;10.15;3.40;;;;;;;;;;5028614;28;20104;-86